sensor_id;sensor_type;location;lat;lon;timestamp;P1;durP1;ratioP1;P2;durP2;ratioP2
51957;SDS011;41120;51.820;20.804;2023-06-10T00:02:00;7.23;;;6.30;;
51957;SDS011;41120;51.820;20.804;2023-06-10T00:04:26;10.50;;;6.20;;
51957;SDS011;41120;51.820;20.804;2023-06-10T00:06:52;9.23;;;6.73;;
51957;SDS011;41120;51.820;20.804;2023-06-10T00:09:19;8.60;;;6.07;;
51957;SDS011;41120;51.820;20.804;2023-06-10T00:11:46;7.87;;;6.30;;
51957;SDS011;41120;51.820;20.804;2023-06-10T00:14:12;9.53;;;6.10;;
51957;SDS011;41120;51.820;20.804;2023-06-10T00:16:38;7.10;;;6.17;;
51957;SDS011;41120;51.820;20.804;2023-06-10T00:19:04;8.50;;;5.83;;
51957;SDS011;41120;51.820;20.804;2023-06-10T00:21:30;12.23;;;6.80;;
51957;SDS011;41120;51.820;20.804;2023-06-10T00:24:03;8.77;;;6.37;;
51957;SDS011;41120;51.820;20.804;2023-06-10T00:26:30;7.47;;;6.10;;
51957;SDS011;41120;51.820;20.804;2023-06-10T00:28:56;7.00;;;5.73;;
51957;SDS011;41120;51.820;20.804;2023-06-10T00:31:22;8.20;;;7.07;;
51957;SDS011;41120;51.820;20.804;2023-06-10T00:33:48;6.20;;;5.60;;
51957;SDS011;41120;51.820;20.804;2023-06-10T00:36:13;8.33;;;6.27;;
51957;SDS011;41120;51.820;20.804;2023-06-10T00:38:39;9.07;;;6.10;;
51957;SDS011;41120;51.820;20.804;2023-06-10T00:41:06;8.03;;;6.10;;
51957;SDS011;41120;51.820;20.804;2023-06-10T00:43:32;7.07;;;5.70;;
51957;SDS011;41120;51.820;20.804;2023-06-10T00:45:57;7.47;;;6.43;;
51957;SDS011;41120;51.820;20.804;2023-06-10T00:48:23;8.77;;;6.13;;
51957;SDS011;41120;51.820;20.804;2023-06-10T00:50:49;8.13;;;6.17;;
51957;SDS011;41120;51.820;20.804;2023-06-10T00:53:16;7.90;;;6.20;;
51957;SDS011;41120;51.820;20.804;2023-06-10T00:55:42;9.63;;;6.77;;
51957;SDS011;41120;51.820;20.804;2023-06-10T00:58:08;7.40;;;6.70;;
51957;SDS011;41120;51.820;20.804;2023-06-10T01:00:34;6.47;;;5.77;;
51957;SDS011;41120;51.820;20.804;2023-06-10T01:03:00;12.27;;;6.33;;
51957;SDS011;41120;51.820;20.804;2023-06-10T01:05:25;7.30;;;6.43;;
51957;SDS011;41120;51.820;20.804;2023-06-10T01:08:01;7.67;;;6.23;;
51957;SDS011;41120;51.820;20.804;2023-06-10T01:10:32;7.60;;;6.70;;
51957;SDS011;41120;51.820;20.804;2023-06-10T01:12:59;7.87;;;5.83;;
51957;SDS011;41120;51.820;20.804;2023-06-10T01:15:29;7.07;;;6.00;;
51957;SDS011;41120;51.820;20.804;2023-06-10T01:18:02;8.60;;;6.50;;
51957;SDS011;41120;51.820;20.804;2023-06-10T01:20:29;6.93;;;5.77;;
51957;SDS011;41120;51.820;20.804;2023-06-10T01:23:00;7.43;;;5.90;;
51957;SDS011;41120;51.820;20.804;2023-06-10T01:25:29;6.93;;;5.43;;
51957;SDS011;41120;51.820;20.804;2023-06-10T01:28:07;6.47;;;5.60;;
51957;SDS011;41120;51.820;20.804;2023-06-10T01:30:45;6.00;;;4.93;;
51957;SDS011;41120;51.820;20.804;2023-06-10T01:33:13;5.57;;;4.93;;
51957;SDS011;41120;51.820;20.804;2023-06-10T01:35:41;7.57;;;4.90;;
51957;SDS011;41120;51.820;20.804;2023-06-10T01:38:09;5.93;;;5.33;;
51957;SDS011;41120;51.820;20.804;2023-06-10T01:40:35;6.67;;;5.23;;
51957;SDS011;41120;51.820;20.804;2023-06-10T01:43:01;6.30;;;5.03;;
51957;SDS011;41120;51.820;20.804;2023-06-10T01:45:27;7.27;;;5.53;;
51957;SDS011;41120;51.820;20.804;2023-06-10T01:47:54;9.13;;;6.00;;
51957;SDS011;41120;51.820;20.804;2023-06-10T01:50:20;8.23;;;5.67;;
51957;SDS011;41120;51.820;20.804;2023-06-10T01:52:46;9.77;;;6.00;;
51957;SDS011;41120;51.820;20.804;2023-06-10T01:55:12;7.60;;;6.23;;
51957;SDS011;41120;51.820;20.804;2023-06-10T01:57:38;7.13;;;6.07;;
51957;SDS011;41120;51.820;20.804;2023-06-10T02:00:03;11.07;;;6.50;;
51957;SDS011;41120;51.820;20.804;2023-06-10T02:02:29;8.33;;;6.13;;
51957;SDS011;41120;51.820;20.804;2023-06-10T02:04:55;8.27;;;5.87;;
51957;SDS011;41120;51.820;20.804;2023-06-10T02:07:21;7.27;;;5.90;;
51957;SDS011;41120;51.820;20.804;2023-06-10T02:09:47;7.63;;;6.83;;
51957;SDS011;41120;51.820;20.804;2023-06-10T02:12:13;7.50;;;6.63;;
51957;SDS011;41120;51.820;20.804;2023-06-10T02:14:39;7.00;;;6.30;;
51957;SDS011;41120;51.820;20.804;2023-06-10T02:17:05;9.53;;;6.83;;
51957;SDS011;41120;51.820;20.804;2023-06-10T02:19:31;11.77;;;7.13;;
51957;SDS011;41120;51.820;20.804;2023-06-10T02:21:57;10.03;;;7.43;;
51957;SDS011;41120;51.820;20.804;2023-06-10T02:24:23;8.80;;;7.53;;
51957;SDS011;41120;51.820;20.804;2023-06-10T02:26:48;8.37;;;6.87;;
51957;SDS011;41120;51.820;20.804;2023-06-10T02:29:14;9.93;;;7.60;;
51957;SDS011;41120;51.820;20.804;2023-06-10T02:31:40;9.23;;;6.77;;
51957;SDS011;41120;51.820;20.804;2023-06-10T02:34:06;10.70;;;7.80;;
51957;SDS011;41120;51.820;20.804;2023-06-10T02:36:32;9.50;;;7.43;;
51957;SDS011;41120;51.820;20.804;2023-06-10T02:38:58;9.70;;;8.00;;
51957;SDS011;41120;51.820;20.804;2023-06-10T02:41:24;12.13;;;7.63;;
51957;SDS011;41120;51.820;20.804;2023-06-10T02:43:51;8.77;;;7.70;;
51957;SDS011;41120;51.820;20.804;2023-06-10T02:46:17;9.87;;;7.73;;
51957;SDS011;41120;51.820;20.804;2023-06-10T02:48:43;9.27;;;7.73;;
51957;SDS011;41120;51.820;20.804;2023-06-10T02:51:10;9.73;;;7.80;;
51957;SDS011;41120;51.820;20.804;2023-06-10T02:53:36;8.83;;;7.77;;
51957;SDS011;41120;51.820;20.804;2023-06-10T02:56:03;9.97;;;8.13;;
51957;SDS011;41120;51.820;20.804;2023-06-10T02:58:29;10.90;;;7.20;;
51957;SDS011;41120;51.820;20.804;2023-06-10T03:00:56;9.17;;;6.93;;
51957;SDS011;41120;51.820;20.804;2023-06-10T03:03:22;8.33;;;6.83;;
51957;SDS011;41120;51.820;20.804;2023-06-10T03:05:48;7.83;;;6.63;;
51957;SDS011;41120;51.820;20.804;2023-06-10T03:08:14;11.83;;;6.30;;
51957;SDS011;41120;51.820;20.804;2023-06-10T03:10:40;7.90;;;6.57;;
51957;SDS011;41120;51.820;20.804;2023-06-10T03:13:05;8.57;;;6.80;;
51957;SDS011;41120;51.820;20.804;2023-06-10T03:15:31;7.83;;;5.87;;
51957;SDS011;41120;51.820;20.804;2023-06-10T03:17:59;11.23;;;6.23;;
51957;SDS011;41120;51.820;20.804;2023-06-10T03:20:25;10.00;;;6.30;;
51957;SDS011;41120;51.820;20.804;2023-06-10T03:22:53;8.27;;;5.87;;
51957;SDS011;41120;51.820;20.804;2023-06-10T03:25:18;9.00;;;5.90;;
51957;SDS011;41120;51.820;20.804;2023-06-10T03:27:46;8.30;;;6.67;;
51957;SDS011;41120;51.820;20.804;2023-06-10T03:30:12;7.67;;;5.23;;
51957;SDS011;41120;51.820;20.804;2023-06-10T03:32:39;7.27;;;5.17;;
51957;SDS011;41120;51.820;20.804;2023-06-10T03:35:06;8.47;;;5.90;;
51957;SDS011;41120;51.820;20.804;2023-06-10T03:37:33;8.33;;;5.70;;
51957;SDS011;41120;51.820;20.804;2023-06-10T03:39:59;8.20;;;5.80;;
51957;SDS011;41120;51.820;20.804;2023-06-10T03:42:25;6.47;;;5.70;;
51957;SDS011;41120;51.820;20.804;2023-06-10T03:44:52;9.33;;;5.40;;
51957;SDS011;41120;51.820;20.804;2023-06-10T03:47:18;7.57;;;5.13;;
51957;SDS011;41120;51.820;20.804;2023-06-10T03:49:44;6.77;;;5.40;;
51957;SDS011;41120;51.820;20.804;2023-06-10T03:52:09;6.43;;;5.17;;
51957;SDS011;41120;51.820;20.804;2023-06-10T03:54:35;6.07;;;5.00;;
51957;SDS011;41120;51.820;20.804;2023-06-10T03:57:01;8.07;;;5.47;;
51957;SDS011;41120;51.820;20.804;2023-06-10T03:59:27;9.73;;;5.37;;
51957;SDS011;41120;51.820;20.804;2023-06-10T04:01:54;7.03;;;5.40;;
51957;SDS011;41120;51.820;20.804;2023-06-10T04:04:20;8.33;;;5.47;;
51957;SDS011;41120;51.820;20.804;2023-06-10T04:06:45;8.00;;;5.40;;
51957;SDS011;41120;51.820;20.804;2023-06-10T04:09:12;8.63;;;5.60;;
51957;SDS011;41120;51.820;20.804;2023-06-10T04:11:38;6.53;;;5.43;;
51957;SDS011;41120;51.820;20.804;2023-06-10T04:14:03;11.70;;;6.00;;
51957;SDS011;41120;51.820;20.804;2023-06-10T04:16:29;7.40;;;5.00;;
51957;SDS011;41120;51.820;20.804;2023-06-10T04:18:55;8.03;;;5.20;;
51957;SDS011;41120;51.820;20.804;2023-06-10T04:21:20;7.17;;;5.07;;
51957;SDS011;41120;51.820;20.804;2023-06-10T04:23:47;8.77;;;5.70;;
51957;SDS011;41120;51.820;20.804;2023-06-10T04:26:13;6.03;;;5.10;;
51957;SDS011;41120;51.820;20.804;2023-06-10T04:28:39;7.63;;;4.80;;
51957;SDS011;41120;51.820;20.804;2023-06-10T04:31:05;7.03;;;5.17;;
51957;SDS011;41120;51.820;20.804;2023-06-10T04:33:31;8.43;;;4.87;;
51957;SDS011;41120;51.820;20.804;2023-06-10T04:35:56;10.33;;;5.43;;
51957;SDS011;41120;51.820;20.804;2023-06-10T04:38:23;6.43;;;4.80;;
51957;SDS011;41120;51.820;20.804;2023-06-10T04:40:48;4.87;;;4.37;;
51957;SDS011;41120;51.820;20.804;2023-06-10T04:43:14;5.70;;;4.60;;
51957;SDS011;41120;51.820;20.804;2023-06-10T04:45:39;7.27;;;4.70;;
51957;SDS011;41120;51.820;20.804;2023-06-10T04:48:05;6.43;;;4.53;;
51957;SDS011;41120;51.820;20.804;2023-06-10T04:50:31;9.07;;;5.30;;
51957;SDS011;41120;51.820;20.804;2023-06-10T04:52:58;8.47;;;5.00;;
51957;SDS011;41120;51.820;20.804;2023-06-10T04:55:24;6.33;;;4.63;;
51957;SDS011;41120;51.820;20.804;2023-06-10T04:57:51;5.97;;;4.70;;
51957;SDS011;41120;51.820;20.804;2023-06-10T05:00:17;8.90;;;4.87;;
51957;SDS011;41120;51.820;20.804;2023-06-10T05:02:43;7.87;;;4.97;;
51957;SDS011;41120;51.820;20.804;2023-06-10T05:05:10;6.90;;;4.73;;
51957;SDS011;41120;51.820;20.804;2023-06-10T05:07:36;9.97;;;4.20;;
51957;SDS011;41120;51.820;20.804;2023-06-10T05:10:01;6.97;;;4.57;;
51957;SDS011;41120;51.820;20.804;2023-06-10T05:12:28;6.87;;;4.13;;
51957;SDS011;41120;51.820;20.804;2023-06-10T05:14:54;5.50;;;4.07;;
51957;SDS011;41120;51.820;20.804;2023-06-10T05:17:20;8.97;;;3.97;;
51957;SDS011;41120;51.820;20.804;2023-06-10T05:19:45;6.63;;;4.28;;
51957;SDS011;41120;51.820;20.804;2023-06-10T05:22:12;6.85;;;4.40;;
51957;SDS011;41120;51.820;20.804;2023-06-10T05:24:38;7.20;;;4.30;;
51957;SDS011;41120;51.820;20.804;2023-06-10T05:27:04;7.45;;;4.13;;
51957;SDS011;41120;51.820;20.804;2023-06-10T05:29:32;6.75;;;4.43;;
51957;SDS011;41120;51.820;20.804;2023-06-10T05:31:57;5.32;;;3.60;;
51957;SDS011;41120;51.820;20.804;2023-06-10T05:34:28;8.93;;;3.80;;
51957;SDS011;41120;51.820;20.804;2023-06-10T05:36:54;7.85;;;3.85;;
51957;SDS011;41120;51.820;20.804;2023-06-10T05:39:19;6.22;;;3.80;;
51957;SDS011;41120;51.820;20.804;2023-06-10T05:41:45;4.90;;;3.70;;
51957;SDS011;41120;51.820;20.804;2023-06-10T05:44:11;7.75;;;4.03;;
51957;SDS011;41120;51.820;20.804;2023-06-10T05:46:36;5.82;;;3.45;;
51957;SDS011;41120;51.820;20.804;2023-06-10T05:49:02;6.95;;;4.30;;
51957;SDS011;41120;51.820;20.804;2023-06-10T05:51:28;4.38;;;3.75;;
51957;SDS011;41120;51.820;20.804;2023-06-10T05:53:54;8.63;;;3.75;;
51957;SDS011;41120;51.820;20.804;2023-06-10T05:56:20;6.22;;;3.53;;
51957;SDS011;41120;51.820;20.804;2023-06-10T05:58:47;5.53;;;3.75;;
51957;SDS011;41120;51.820;20.804;2023-06-10T06:01:13;7.63;;;3.25;;
51957;SDS011;41120;51.820;20.804;2023-06-10T06:03:39;5.65;;;3.08;;
51957;SDS011;41120;51.820;20.804;2023-06-10T06:06:05;4.65;;;3.70;;
51957;SDS011;41120;51.820;20.804;2023-06-10T06:08:31;4.50;;;3.33;;
51957;SDS011;41120;51.820;20.804;2023-06-10T06:10:57;5.78;;;3.75;;
51957;SDS011;41120;51.820;20.804;2023-06-10T06:13:22;6.07;;;3.38;;
51957;SDS011;41120;51.820;20.804;2023-06-10T06:15:49;5.60;;;3.40;;
51957;SDS011;41120;51.820;20.804;2023-06-10T06:18:15;5.60;;;3.60;;
51957;SDS011;41120;51.820;20.804;2023-06-10T06:20:42;7.72;;;3.17;;
51957;SDS011;41120;51.820;20.804;2023-06-10T06:23:08;5.00;;;3.60;;
51957;SDS011;41120;51.820;20.804;2023-06-10T06:25:36;5.18;;;3.28;;
51957;SDS011;41120;51.820;20.804;2023-06-10T06:28:07;4.97;;;3.20;;
51957;SDS011;41120;51.820;20.804;2023-06-10T06:30:34;4.85;;;3.17;;
51957;SDS011;41120;51.820;20.804;2023-06-10T06:33:01;6.20;;;3.40;;
51957;SDS011;41120;51.820;20.804;2023-06-10T06:35:27;5.47;;;3.70;;
51957;SDS011;41120;51.820;20.804;2023-06-10T06:37:52;6.38;;;3.30;;
51957;SDS011;41120;51.820;20.804;2023-06-10T06:40:18;3.92;;;3.20;;
51957;SDS011;41120;51.820;20.804;2023-06-10T06:42:45;6.95;;;3.50;;
51957;SDS011;41120;51.820;20.804;2023-06-10T06:45:11;3.80;;;2.88;;
51957;SDS011;41120;51.820;20.804;2023-06-10T06:47:37;6.18;;;2.88;;
51957;SDS011;41120;51.820;20.804;2023-06-10T06:50:04;5.50;;;3.38;;
51957;SDS011;41120;51.820;20.804;2023-06-10T06:52:29;10.02;;;3.35;;
51957;SDS011;41120;51.820;20.804;2023-06-10T06:54:55;6.95;;;3.22;;
51957;SDS011;41120;51.820;20.804;2023-06-10T06:57:21;4.35;;;3.58;;
51957;SDS011;41120;51.820;20.804;2023-06-10T06:59:48;7.85;;;3.33;;
51957;SDS011;41120;51.820;20.804;2023-06-10T07:02:14;5.22;;;3.13;;
51957;SDS011;41120;51.820;20.804;2023-06-10T07:04:40;4.65;;;3.17;;
51957;SDS011;41120;51.820;20.804;2023-06-10T07:07:07;6.85;;;3.78;;
51957;SDS011;41120;51.820;20.804;2023-06-10T07:09:33;4.28;;;2.83;;
51957;SDS011;41120;51.820;20.804;2023-06-10T07:11:58;5.50;;;3.22;;
51957;SDS011;41120;51.820;20.804;2023-06-10T07:14:24;7.07;;;3.10;;
51957;SDS011;41120;51.820;20.804;2023-06-10T07:16:49;5.00;;;3.55;;
51957;SDS011;41120;51.820;20.804;2023-06-10T07:19:15;4.32;;;3.00;;
51957;SDS011;41120;51.820;20.804;2023-06-10T07:21:41;5.00;;;3.00;;
51957;SDS011;41120;51.820;20.804;2023-06-10T07:24:07;6.75;;;2.83;;
51957;SDS011;41120;51.820;20.804;2023-06-10T07:26:32;7.47;;;2.72;;
51957;SDS011;41120;51.820;20.804;2023-06-10T07:28:58;6.88;;;3.53;;
51957;SDS011;41120;51.820;20.804;2023-06-10T07:31:23;3.30;;;2.70;;
51957;SDS011;41120;51.820;20.804;2023-06-10T07:33:50;5.20;;;3.60;;
51957;SDS011;41120;51.820;20.804;2023-06-10T07:36:15;4.88;;;3.55;;
51957;SDS011;41120;51.820;20.804;2023-06-10T07:38:41;5.68;;;3.90;;
51957;SDS011;41120;51.820;20.804;2023-06-10T07:41:07;6.90;;;3.35;;
51957;SDS011;41120;51.820;20.804;2023-06-10T07:43:33;5.95;;;3.55;;
51957;SDS011;41120;51.820;20.804;2023-06-10T07:45:59;4.10;;;3.40;;
51957;SDS011;41120;51.820;20.804;2023-06-10T07:48:25;3.92;;;3.03;;
51957;SDS011;41120;51.820;20.804;2023-06-10T07:50:51;4.60;;;3.80;;
51957;SDS011;41120;51.820;20.804;2023-06-10T07:53:17;6.07;;;3.67;;
51957;SDS011;41120;51.820;20.804;2023-06-10T07:55:42;9.97;;;4.63;;
51957;SDS011;41120;51.820;20.804;2023-06-10T07:58:08;12.10;;;4.07;;
51957;SDS011;41120;51.820;20.804;2023-06-10T08:00:34;6.27;;;4.43;;
51957;SDS011;41120;51.820;20.804;2023-06-10T08:03:00;6.13;;;3.60;;
51957;SDS011;41120;51.820;20.804;2023-06-10T08:05:25;8.40;;;4.10;;
51957;SDS011;41120;51.820;20.804;2023-06-10T08:07:51;5.40;;;3.53;;
51957;SDS011;41120;51.820;20.804;2023-06-10T08:10:20;7.80;;;3.70;;
51957;SDS011;41120;51.820;20.804;2023-06-10T08:12:45;8.33;;;4.37;;
51957;SDS011;41120;51.820;20.804;2023-06-10T08:15:11;8.30;;;4.00;;
51957;SDS011;41120;51.820;20.804;2023-06-10T08:17:37;8.00;;;3.90;;
51957;SDS011;41120;51.820;20.804;2023-06-10T08:20:04;6.30;;;3.77;;
51957;SDS011;41120;51.820;20.804;2023-06-10T08:22:31;5.10;;;3.70;;
51957;SDS011;41120;51.820;20.804;2023-06-10T08:24:57;6.70;;;3.60;;
51957;SDS011;41120;51.820;20.804;2023-06-10T08:27:23;4.43;;;3.50;;
51957;SDS011;41120;51.820;20.804;2023-06-10T08:29:49;5.90;;;3.40;;
51957;SDS011;41120;51.820;20.804;2023-06-10T08:32:16;4.90;;;3.27;;
51957;SDS011;41120;51.820;20.804;2023-06-10T08:34:41;3.63;;;3.23;;
51957;SDS011;41120;51.820;20.804;2023-06-10T08:37:07;7.73;;;3.63;;
51957;SDS011;41120;51.820;20.804;2023-06-10T08:39:33;5.33;;;2.93;;
51957;SDS011;41120;51.820;20.804;2023-06-10T08:44:31;6.77;;;3.87;;
51957;SDS011;41120;51.820;20.804;2023-06-10T08:46:59;5.27;;;3.47;;
51957;SDS011;41120;51.820;20.804;2023-06-10T08:49:26;10.47;;;3.37;;
51957;SDS011;41120;51.820;20.804;2023-06-10T08:51:59;7.27;;;3.47;;
51957;SDS011;41120;51.820;20.804;2023-06-10T08:54:27;5.80;;;3.13;;
51957;SDS011;41120;51.820;20.804;2023-06-10T08:56:54;5.77;;;3.20;;
51957;SDS011;41120;51.820;20.804;2023-06-10T08:59:20;6.83;;;3.40;;
51957;SDS011;41120;51.820;20.804;2023-06-10T09:01:47;6.93;;;3.03;;
51957;SDS011;41120;51.820;20.804;2023-06-10T09:04:12;4.37;;;3.30;;
51957;SDS011;41120;51.820;20.804;2023-06-10T09:06:38;6.23;;;3.40;;
51957;SDS011;41120;51.820;20.804;2023-06-10T09:09:05;10.93;;;3.67;;
51957;SDS011;41120;51.820;20.804;2023-06-10T09:11:31;4.47;;;3.43;;
51957;SDS011;41120;51.820;20.804;2023-06-10T09:13:57;7.97;;;3.53;;
51957;SDS011;41120;51.820;20.804;2023-06-10T09:16:24;6.68;;;3.55;;
51957;SDS011;41120;51.820;20.804;2023-06-10T09:18:50;5.73;;;3.30;;
51957;SDS011;41120;51.820;20.804;2023-06-10T09:21:22;5.73;;;3.40;;
51957;SDS011;41120;51.820;20.804;2023-06-10T09:23:47;4.50;;;3.30;;
51957;SDS011;41120;51.820;20.804;2023-06-10T09:26:13;5.63;;;3.50;;
51957;SDS011;41120;51.820;20.804;2023-06-10T09:28:38;7.57;;;2.90;;
51957;SDS011;41120;51.820;20.804;2023-06-10T09:31:06;5.63;;;3.00;;
51957;SDS011;41120;51.820;20.804;2023-06-10T09:33:38;7.70;;;2.77;;
51957;SDS011;41120;51.820;20.804;2023-06-10T09:36:05;5.00;;;2.93;;
51957;SDS011;41120;51.820;20.804;2023-06-10T09:38:31;10.60;;;3.07;;
51957;SDS011;41120;51.820;20.804;2023-06-10T09:40:58;3.90;;;2.83;;
51957;SDS011;41120;51.820;20.804;2023-06-10T09:43:37;5.60;;;3.57;;
51957;SDS011;41120;51.820;20.804;2023-06-10T09:46:04;3.40;;;2.73;;
51957;SDS011;41120;51.820;20.804;2023-06-10T09:48:29;5.70;;;3.23;;
51957;SDS011;41120;51.820;20.804;2023-06-10T09:50:55;4.93;;;2.90;;
51957;SDS011;41120;51.820;20.804;2023-06-10T09:53:21;5.10;;;3.40;;
51957;SDS011;41120;51.820;20.804;2023-06-10T09:55:47;4.57;;;3.00;;
51957;SDS011;41120;51.820;20.804;2023-06-10T09:58:12;6.57;;;3.00;;
51957;SDS011;41120;51.820;20.804;2023-06-10T10:00:38;4.33;;;3.00;;
51957;SDS011;41120;51.820;20.804;2023-06-10T10:03:03;5.90;;;3.30;;
51957;SDS011;41120;51.820;20.804;2023-06-10T10:05:29;5.45;;;3.30;;
51957;SDS011;41120;51.820;20.804;2023-06-10T10:07:55;8.70;;;3.37;;
51957;SDS011;41120;51.820;20.804;2023-06-10T10:10:22;5.20;;;3.43;;
51957;SDS011;41120;51.820;20.804;2023-06-10T10:12:50;4.40;;;3.20;;
51957;SDS011;41120;51.820;20.804;2023-06-10T10:15:17;5.87;;;3.53;;
51957;SDS011;41120;51.820;20.804;2023-06-10T10:17:53;6.83;;;3.40;;
51957;SDS011;41120;51.820;20.804;2023-06-10T10:20:29;6.60;;;3.50;;
51957;SDS011;41120;51.820;20.804;2023-06-10T10:22:56;4.70;;;3.33;;
51957;SDS011;41120;51.820;20.804;2023-06-10T10:25:23;3.90;;;3.10;;
51957;SDS011;41120;51.820;20.804;2023-06-10T10:28:01;4.17;;;3.00;;
51957;SDS011;41120;51.820;20.804;2023-06-10T10:30:28;4.70;;;3.38;;
51957;SDS011;41120;51.820;20.804;2023-06-10T10:33:00;5.82;;;2.80;;
51957;SDS011;41120;51.820;20.804;2023-06-10T10:35:31;6.45;;;2.90;;
51957;SDS011;41120;51.820;20.804;2023-06-10T10:37:58;5.33;;;3.40;;
51957;SDS011;41120;51.820;20.804;2023-06-10T10:40:25;4.40;;;2.80;;
51957;SDS011;41120;51.820;20.804;2023-06-10T10:42:55;4.90;;;3.20;;
51957;SDS011;41120;51.820;20.804;2023-06-10T10:45:22;3.60;;;2.95;;
51957;SDS011;41120;51.820;20.804;2023-06-10T10:47:54;6.63;;;3.28;;
51957;SDS011;41120;51.820;20.804;2023-06-10T10:50:23;5.65;;;3.38;;
51957;SDS011;41120;51.820;20.804;2023-06-10T10:55:19;5.72;;;3.28;;
51957;SDS011;41120;51.820;20.804;2023-06-10T10:57:53;5.45;;;3.42;;
51957;SDS011;41120;51.820;20.804;2023-06-10T11:00:29;6.90;;;3.13;;
51957;SDS011;41120;51.820;20.804;2023-06-10T11:02:58;9.93;;;3.72;;
51957;SDS011;41120;51.820;20.804;2023-06-10T11:10:56;5.78;;;3.20;;
51957;SDS011;41120;51.820;20.804;2023-06-10T11:13:22;4.10;;;3.13;;
51957;SDS011;41120;51.820;20.804;2023-06-10T11:15:49;6.05;;;3.58;;
51957;SDS011;41120;51.820;20.804;2023-06-10T11:18:24;6.10;;;3.33;;
51957;SDS011;41120;51.820;20.804;2023-06-10T11:20:52;5.40;;;3.13;;
51957;SDS011;41120;51.820;20.804;2023-06-10T11:28:39;12.35;;;4.15;;
51957;SDS011;41120;51.820;20.804;2023-06-10T11:31:05;7.03;;;3.67;;
51957;SDS011;41120;51.820;20.804;2023-06-10T11:33:31;6.88;;;3.75;;
51957;SDS011;41120;51.820;20.804;2023-06-10T11:35:57;5.38;;;3.90;;
51957;SDS011;41120;51.820;20.804;2023-06-10T11:38:25;8.98;;;3.88;;
51957;SDS011;41120;51.820;20.804;2023-06-10T11:40:52;7.32;;;3.80;;
51957;SDS011;41120;51.820;20.804;2023-06-10T11:43:18;17.13;;;4.72;;
51957;SDS011;41120;51.820;20.804;2023-06-10T11:45:44;6.75;;;3.90;;
51957;SDS011;41120;51.820;20.804;2023-06-10T11:48:10;7.30;;;3.90;;
51957;SDS011;41120;51.820;20.804;2023-06-10T11:50:36;6.95;;;3.58;;
51957;SDS011;41120;51.820;20.804;2023-06-10T11:53:02;12.60;;;4.28;;
51957;SDS011;41120;51.820;20.804;2023-06-10T11:55:44;7.57;;;4.20;;
51957;SDS011;41120;51.820;20.804;2023-06-10T11:58:16;9.88;;;3.80;;
51957;SDS011;41120;51.820;20.804;2023-06-10T12:03:07;8.82;;;4.72;;
51957;SDS011;41120;51.820;20.804;2023-06-10T12:05:33;4.93;;;3.60;;
51957;SDS011;41120;51.820;20.804;2023-06-10T12:08:17;6.47;;;4.10;;
51957;SDS011;41120;51.820;20.804;2023-06-10T12:10:43;10.13;;;3.90;;
51957;SDS011;41120;51.820;20.804;2023-06-10T12:13:09;6.55;;;4.38;;
51957;SDS011;41120;51.820;20.804;2023-06-10T12:15:35;7.80;;;3.90;;
51957;SDS011;41120;51.820;20.804;2023-06-10T12:18:02;6.90;;;4.05;;
51957;SDS011;41120;51.820;20.804;2023-06-10T12:20:28;7.50;;;4.32;;
51957;SDS011;41120;51.820;20.804;2023-06-10T12:22:55;5.83;;;4.23;;
51957;SDS011;41120;51.820;20.804;2023-06-10T12:25:29;6.37;;;4.17;;
51957;SDS011;41120;51.820;20.804;2023-06-10T12:27:56;6.78;;;3.83;;
51957;SDS011;41120;51.820;20.804;2023-06-10T12:30:25;4.93;;;4.22;;
51957;SDS011;41120;51.820;20.804;2023-06-10T12:32:51;6.90;;;3.97;;
51957;SDS011;41120;51.820;20.804;2023-06-10T12:35:24;5.03;;;4.00;;
51957;SDS011;41120;51.820;20.804;2023-06-10T12:37:54;9.43;;;4.77;;
51957;SDS011;41120;51.820;20.804;2023-06-10T12:40:31;6.53;;;4.27;;
51957;SDS011;41120;51.820;20.804;2023-06-10T12:42:57;8.90;;;4.33;;
51957;SDS011;41120;51.820;20.804;2023-06-10T12:45:36;7.40;;;6.60;;
51957;SDS011;41120;51.820;20.804;2023-06-10T12:50:38;5.17;;;4.40;;
51957;SDS011;41120;51.820;20.804;2023-06-10T12:53:04;6.67;;;4.43;;
51957;SDS011;41120;51.820;20.804;2023-06-10T12:55:31;6.40;;;4.78;;
51957;SDS011;41120;51.820;20.804;2023-06-10T12:57:57;8.80;;;5.35;;
51957;SDS011;41120;51.820;20.804;2023-06-10T13:00:22;10.73;;;5.57;;
51957;SDS011;41120;51.820;20.804;2023-06-10T13:02:51;8.13;;;4.80;;
51957;SDS011;41120;51.820;20.804;2023-06-10T13:05:17;10.93;;;5.30;;
51957;SDS011;41120;51.820;20.804;2023-06-10T13:07:43;7.27;;;4.57;;
51957;SDS011;41120;51.820;20.804;2023-06-10T13:10:09;10.73;;;5.82;;
51957;SDS011;41120;51.820;20.804;2023-06-10T13:12:35;8.63;;;5.15;;
51957;SDS011;41120;51.820;20.804;2023-06-10T13:15:02;10.37;;;5.00;;
51957;SDS011;41120;51.820;20.804;2023-06-10T13:17:28;5.77;;;4.63;;
51957;SDS011;41120;51.820;20.804;2023-06-10T13:19:54;6.20;;;4.87;;
51957;SDS011;41120;51.820;20.804;2023-06-10T13:22:20;6.50;;;5.00;;
51957;SDS011;41120;51.820;20.804;2023-06-10T13:24:46;13.67;;;5.30;;
51957;SDS011;41120;51.820;20.804;2023-06-10T13:27:12;7.30;;;5.03;;
51957;SDS011;41120;51.820;20.804;2023-06-10T13:29:40;7.30;;;5.60;;
51957;SDS011;41120;51.820;20.804;2023-06-10T13:32:06;13.07;;;6.70;;
51957;SDS011;41120;51.820;20.804;2023-06-10T13:34:32;6.60;;;5.07;;
51957;SDS011;41120;51.820;20.804;2023-06-10T13:36:57;5.80;;;4.97;;
51957;SDS011;41120;51.820;20.804;2023-06-10T13:39:23;7.43;;;5.67;;
51957;SDS011;41120;51.820;20.804;2023-06-10T13:41:49;8.50;;;5.63;;
51957;SDS011;41120;51.820;20.804;2023-06-10T13:44:15;6.87;;;5.90;;
51957;SDS011;41120;51.820;20.804;2023-06-10T13:46:42;5.87;;;4.97;;
51957;SDS011;41120;51.820;20.804;2023-06-10T13:49:08;7.67;;;5.50;;
51957;SDS011;41120;51.820;20.804;2023-06-10T13:51:34;10.33;;;6.83;;
51957;SDS011;41120;51.820;20.804;2023-06-10T13:54:01;5.97;;;4.90;;
51957;SDS011;41120;51.820;20.804;2023-06-10T13:56:27;8.27;;;5.47;;
51957;SDS011;41120;51.820;20.804;2023-06-10T13:58:52;7.43;;;4.60;;
51957;SDS011;41120;51.820;20.804;2023-06-10T14:01:19;5.53;;;4.10;;
51957;SDS011;41120;51.820;20.804;2023-06-10T14:03:46;4.57;;;3.83;;
51957;SDS011;41120;51.820;20.804;2023-06-10T14:06:12;8.13;;;4.27;;
51957;SDS011;41120;51.820;20.804;2023-06-10T14:08:44;7.38;;;5.25;;
51957;SDS011;41120;51.820;20.804;2023-06-10T14:11:10;4.43;;;3.80;;
51957;SDS011;41120;51.820;20.804;2023-06-10T14:13:36;5.83;;;3.90;;
51957;SDS011;41120;51.820;20.804;2023-06-10T14:16:04;4.53;;;3.70;;
51957;SDS011;41120;51.820;20.804;2023-06-10T14:18:30;4.40;;;3.77;;
51957;SDS011;41120;51.820;20.804;2023-06-10T14:20:55;5.80;;;4.27;;
51957;SDS011;41120;51.820;20.804;2023-06-10T14:23:21;7.10;;;4.03;;
51957;SDS011;41120;51.820;20.804;2023-06-10T14:25:47;6.53;;;4.40;;
51957;SDS011;41120;51.820;20.804;2023-06-10T14:28:13;9.13;;;5.10;;
51957;SDS011;41120;51.820;20.804;2023-06-10T14:30:38;6.20;;;4.40;;
51957;SDS011;41120;51.820;20.804;2023-06-10T14:33:04;4.60;;;4.10;;
51957;SDS011;41120;51.820;20.804;2023-06-10T14:35:31;5.73;;;4.43;;
51957;SDS011;41120;51.820;20.804;2023-06-10T14:37:56;5.07;;;4.57;;
51957;SDS011;41120;51.820;20.804;2023-06-10T14:40:23;5.40;;;4.43;;
51957;SDS011;41120;51.820;20.804;2023-06-10T14:42:50;6.00;;;4.10;;
51957;SDS011;41120;51.820;20.804;2023-06-10T14:45:16;7.17;;;3.83;;
51957;SDS011;41120;51.820;20.804;2023-06-10T14:47:43;5.23;;;3.73;;
51957;SDS011;41120;51.820;20.804;2023-06-10T14:50:09;6.37;;;4.13;;
51957;SDS011;41120;51.820;20.804;2023-06-10T14:52:34;5.10;;;4.60;;